DAL1067 KATL-KSAV
Flight info
| Callsign | DAL1067 |
|---|---|
| Flight time | 0h 36m |
| Altitude | 23000 |
| Route | VRSTY3 NOKIE DBN LOTTS SAV |
| Aircraft | A319/M-SDE3FGHIRWY/LB1 |
Departure
| Time | 2026-04-30 21:20 |
|---|---|
| Airport | Hartsfield Jackson Atlanta International Airport (KATL) |
Arrival
| Time | 2026-04-30 21:56 |
|---|---|
| Airport | Savannah Hilton Head International Airport (KSAV) |
| Time | Latitude | Longitude | Altitude | Speed | Heading |
|---|---|---|---|---|---|
| 2026-04-30 20:53 | 33.63844 | -84.43872 | 1036 ft | 0 kts | 270° |
| 2026-04-30 21:09 | 33.63845 | -84.43858 | 1036 ft | 4 kts | 269° |
| 2026-04-30 21:10 | 33.63846 | -84.43826 | 1036 ft | 4 kts | 258° |
| 2026-04-30 21:10 | 33.63855 | -84.43798 | 1036 ft | 4 kts | 220° |
| 2026-04-30 21:10 | 33.63870 | -84.43789 | 1036 ft | 0 kts | 180° |
| 2026-04-30 21:11 | 33.63866 | -84.43789 | 1036 ft | 2 kts | 180° |
| 2026-04-30 21:12 | 33.63837 | -84.43789 | 1036 ft | 14 kts | 180° |
| 2026-04-30 21:12 | 33.63728 | -84.43789 | 1036 ft | 16 kts | 180° |
| 2026-04-30 21:12 | 33.63638 | -84.43768 | 1036 ft | 12 kts | 153° |
| 2026-04-30 21:12 | 33.63583 | -84.43701 | 1036 ft | 12 kts | 97° |
| 2026-04-30 21:13 | 33.63582 | -84.43598 | 1035 ft | 13 kts | 90° |
| 2026-04-30 21:13 | 33.63581 | -84.43488 | 1035 ft | 14 kts | 90° |
| 2026-04-30 21:13 | 33.63582 | -84.43371 | 1034 ft | 14 kts | 90° |
| 2026-04-30 21:13 | 33.63582 | -84.43251 | 1035 ft | 14 kts | 90° |
| 2026-04-30 21:14 | 33.63582 | -84.43131 | 1035 ft | 15 kts | 90° |
| 2026-04-30 21:14 | 33.63582 | -84.43008 | 1035 ft | 15 kts | 90° |
| 2026-04-30 21:14 | 33.63582 | -84.42884 | 1035 ft | 15 kts | 90° |
| 2026-04-30 21:14 | 33.63582 | -84.42759 | 1036 ft | 15 kts | 90° |
| 2026-04-30 21:15 | 33.63583 | -84.42636 | 1036 ft | 15 kts | 90° |
| 2026-04-30 21:15 | 33.63583 | -84.42513 | 1036 ft | 15 kts | 90° |
| 2026-04-30 21:15 | 33.63583 | -84.42388 | 1036 ft | 15 kts | 90° |
| 2026-04-30 21:15 | 33.63583 | -84.42258 | 1036 ft | 16 kts | 90° |
| 2026-04-30 21:16 | 33.63584 | -84.42127 | 1036 ft | 16 kts | 90° |
| 2026-04-30 21:16 | 33.63584 | -84.41992 | 1036 ft | 17 kts | 90° |
| 2026-04-30 21:16 | 33.63585 | -84.41849 | 1035 ft | 17 kts | 90° |
| 2026-04-30 21:16 | 33.63584 | -84.41705 | 1035 ft | 17 kts | 91° |
| 2026-04-30 21:17 | 33.63582 | -84.41557 | 1035 ft | 18 kts | 91° |
| 2026-04-30 21:17 | 33.63580 | -84.41406 | 1034 ft | 18 kts | 91° |
| 2026-04-30 21:17 | 33.63580 | -84.41253 | 1035 ft | 18 kts | 90° |
| 2026-04-30 21:17 | 33.63581 | -84.41101 | 1035 ft | 18 kts | 91° |
| 2026-04-30 21:18 | 33.63490 | -84.41067 | 1035 ft | 17 kts | 224° |
| 2026-04-30 21:18 | 33.63472 | -84.41132 | 1034 ft | 0 kts | 270° |
| 2026-04-30 21:19 | 33.63472 | -84.41136 | 1034 ft | 2 kts | 270° |
| 2026-04-30 21:19 | 33.63472 | -84.41394 | 1035 ft | 75 kts | 270° |
| 2026-04-30 21:20 | 33.63472 | -84.42371 | 1039 ft | 155 kts | 270° |
| 2026-04-30 21:20 | 33.63486 | -84.43639 | 1956 ft | 139 kts | 277° |
| 2026-04-30 21:20 | 33.63493 | -84.44795 | 2782 ft | 141 kts | 277° |
| 2026-04-30 21:20 | 33.63494 | -84.46041 | 3202 ft | 160 kts | 276° |
| 2026-04-30 21:21 | 33.63491 | -84.47472 | 3572 ft | 184 kts | 274° |
| 2026-04-30 21:21 | 33.63038 | -84.49027 | 3857 ft | 220 kts | 232° |
| 2026-04-30 21:21 | 33.60312 | -84.51549 | 4808 ft | 273 kts | 216° |
| 2026-04-30 21:22 | 33.58712 | -84.52863 | 5606 ft | 283 kts | 217° |
| 2026-04-30 21:22 | 33.53808 | -84.56884 | 8716 ft | 284 kts | 218° |
| 2026-04-30 21:23 | 33.52180 | -84.58240 | 9776 ft | 285 kts | 219° |
| 2026-04-30 21:23 | 33.50578 | -84.59586 | 10682 ft | 286 kts | 219° |
| 2026-04-30 21:23 | 33.47309 | -84.62339 | 12487 ft | 290 kts | 220° |
| 2026-04-30 21:24 | 33.45610 | -84.63667 | 13372 ft | 296 kts | 211° |
| 2026-04-30 21:24 | 33.43568 | -84.64247 | 14157 ft | 313 kts | 186° |
| 2026-04-30 21:24 | 33.41385 | -84.63669 | 14786 ft | 337 kts | 160° |
| 2026-04-30 21:24 | 33.39442 | -84.61876 | 14965 ft | 372 kts | 134° |
| 2026-04-30 21:25 | 33.36468 | -84.56375 | 15648 ft | 408 kts | 120° |
| 2026-04-30 21:25 | 33.35170 | -84.53326 | 16229 ft | 415 kts | 118° |
| 2026-04-30 21:25 | 33.33869 | -84.50215 | 16827 ft | 421 kts | 119° |
| 2026-04-30 21:26 | 33.31076 | -84.43959 | 18035 ft | 432 kts | 122° |
| 2026-04-30 21:26 | 33.29576 | -84.40822 | 18580 ft | 437 kts | 123° |
| 2026-04-30 21:27 | 33.26452 | -84.34470 | 19662 ft | 447 kts | 124° |
| 2026-04-30 21:27 | 33.24884 | -84.31292 | 20198 ft | 452 kts | 124° |
| 2026-04-30 21:27 | 33.23283 | -84.28033 | 20730 ft | 457 kts | 124° |
| 2026-04-30 21:28 | 33.20052 | -84.21393 | 21770 ft | 467 kts | 125° |
| 2026-04-30 21:28 | 33.18413 | -84.18014 | 22245 ft | 472 kts | 125° |
| 2026-04-30 21:28 | 33.15088 | -84.11167 | 22930 ft | 483 kts | 126° |
| 2026-04-30 21:29 | 33.13454 | -84.07625 | 22929 ft | 491 kts | 119° |
| 2026-04-30 21:29 | 33.09454 | -83.96282 | 22923 ft | 495 kts | 117° |
| 2026-04-30 21:30 | 33.06830 | -83.88698 | 22925 ft | 495 kts | 117° |
| 2026-04-30 21:31 | 33.02877 | -83.77379 | 22921 ft | 495 kts | 117° |
| 2026-04-30 21:31 | 33.00225 | -83.69805 | 22909 ft | 495 kts | 117° |
| 2026-04-30 21:32 | 32.97563 | -83.62237 | 22880 ft | 494 kts | 117° |
| 2026-04-30 21:32 | 32.96227 | -83.58451 | 22876 ft | 495 kts | 117° |
| 2026-04-30 21:32 | 32.94893 | -83.54679 | 22879 ft | 495 kts | 117° |
| 2026-04-30 21:32 | 32.93556 | -83.50898 | 22881 ft | 495 kts | 117° |
| 2026-04-30 21:33 | 32.92222 | -83.47123 | 22886 ft | 494 kts | 117° |
| 2026-04-30 21:33 | 32.89574 | -83.39623 | 22886 ft | 494 kts | 117° |
| 2026-04-30 21:33 | 32.88243 | -83.35864 | 22891 ft | 494 kts | 117° |
| 2026-04-30 21:34 | 32.86904 | -83.32095 | 22897 ft | 494 kts | 117° |
| 2026-04-30 21:34 | 32.84224 | -83.24574 | 22884 ft | 493 kts | 117° |
| 2026-04-30 21:34 | 32.82884 | -83.20817 | 22891 ft | 494 kts | 117° |
| 2026-04-30 21:35 | 32.81541 | -83.17059 | 22899 ft | 494 kts | 117° |
| 2026-04-30 21:35 | 32.80198 | -83.13302 | 22905 ft | 494 kts | 117° |
| 2026-04-30 21:35 | 32.78854 | -83.09544 | 22910 ft | 493 kts | 117° |
| 2026-04-30 21:35 | 32.77515 | -83.05798 | 22930 ft | 492 kts | 117° |
| 2026-04-30 21:36 | 32.76175 | -83.02053 | 22926 ft | 492 kts | 117° |
| 2026-04-30 21:36 | 32.74852 | -82.98358 | 22919 ft | 492 kts | 117° |
| 2026-04-30 21:37 | 32.70828 | -82.87166 | 22918 ft | 491 kts | 117° |
| 2026-04-30 21:37 | 32.69485 | -82.83444 | 22909 ft | 490 kts | 118° |
| 2026-04-30 21:37 | 32.68143 | -82.79721 | 22877 ft | 490 kts | 117° |
| 2026-04-30 21:37 | 32.66811 | -82.76023 | 22904 ft | 483 kts | 117° |
| 2026-04-30 21:38 | 32.65499 | -82.72384 | 22896 ft | 478 kts | 117° |
| 2026-04-30 21:38 | 32.64190 | -82.68763 | 22893 ft | 477 kts | 117° |
| 2026-04-30 21:38 | 32.62881 | -82.65151 | 22888 ft | 476 kts | 117° |
| 2026-04-30 21:38 | 32.61571 | -82.61546 | 22783 ft | 475 kts | 117° |
| 2026-04-30 21:39 | 32.60268 | -82.57960 | 22513 ft | 472 kts | 117° |
| 2026-04-30 21:39 | 32.58972 | -82.54395 | 22249 ft | 470 kts | 117° |
| 2026-04-30 21:39 | 32.57676 | -82.50838 | 21992 ft | 469 kts | 117° |
| 2026-04-30 21:39 | 32.56382 | -82.47300 | 21737 ft | 467 kts | 117° |
| 2026-04-30 21:40 | 32.55524 | -82.44955 | 21570 ft | 466 kts | 117° |
| 2026-04-30 21:40 | 32.54238 | -82.41434 | 21319 ft | 465 kts | 117° |
| 2026-04-30 21:40 | 32.52958 | -82.37923 | 21076 ft | 463 kts | 117° |
| 2026-04-30 21:40 | 32.51520 | -82.34533 | 20826 ft | 456 kts | 126° |
| 2026-04-30 21:41 | 32.49856 | -82.31340 | 20582 ft | 455 kts | 126° |
| 2026-04-30 21:41 | 32.48200 | -82.28150 | 20334 ft | 454 kts | 126° |
| 2026-04-30 21:41 | 32.46552 | -82.24960 | 20105 ft | 453 kts | 126° |
| 2026-04-30 21:41 | 32.44910 | -82.21780 | 19867 ft | 452 kts | 125° |
| 2026-04-30 21:42 | 32.43271 | -82.18614 | 19630 ft | 451 kts | 125° |
| 2026-04-30 21:42 | 32.41631 | -82.15458 | 19389 ft | 450 kts | 125° |
| 2026-04-30 21:42 | 32.39993 | -82.12310 | 19167 ft | 449 kts | 125° |
| 2026-04-30 21:42 | 32.38357 | -82.09165 | 18932 ft | 448 kts | 125° |
| 2026-04-30 21:43 | 32.36727 | -82.06034 | 18676 ft | 447 kts | 125° |
| 2026-04-30 21:43 | 32.35092 | -82.02902 | 18429 ft | 447 kts | 125° |
| 2026-04-30 21:43 | 32.33456 | -81.99773 | 17823 ft | 446 kts | 125° |
| 2026-04-30 21:43 | 32.31825 | -81.96660 | 17214 ft | 444 kts | 125° |
| 2026-04-30 21:44 | 32.30200 | -81.93556 | 16606 ft | 443 kts | 124° |
| 2026-04-30 21:44 | 32.28600 | -81.90499 | 15988 ft | 442 kts | 124° |
| 2026-04-30 21:44 | 32.26988 | -81.87419 | 15370 ft | 440 kts | 124° |
| 2026-04-30 21:44 | 32.25370 | -81.84329 | 14878 ft | 434 kts | 124° |
| 2026-04-30 21:45 | 32.23800 | -81.81333 | 14371 ft | 430 kts | 124° |
| 2026-04-30 21:45 | 32.22237 | -81.78356 | 13914 ft | 423 kts | 124° |
| 2026-04-30 21:45 | 32.20692 | -81.75420 | 13397 ft | 418 kts | 124° |
| 2026-04-30 21:45 | 32.19163 | -81.72520 | 12814 ft | 413 kts | 124° |
| 2026-04-30 21:46 | 32.17652 | -81.69657 | 12197 ft | 409 kts | 124° |
| 2026-04-30 21:46 | 32.16158 | -81.66821 | 11579 ft | 404 kts | 124° |
| 2026-04-30 21:46 | 32.14682 | -81.64022 | 11192 ft | 395 kts | 124° |
| 2026-04-30 21:46 | 32.13266 | -81.61333 | 11068 ft | 377 kts | 124° |
| 2026-04-30 21:47 | 32.11910 | -81.58759 | 10944 ft | 362 kts | 124° |
| 2026-04-30 21:47 | 32.10607 | -81.56283 | 10823 ft | 348 kts | 124° |
| 2026-04-30 21:47 | 32.09348 | -81.53895 | 10683 ft | 336 kts | 124° |
| 2026-04-30 21:47 | 32.08127 | -81.51579 | 10507 ft | 329 kts | 124° |
| 2026-04-30 21:48 | 32.06936 | -81.49330 | 10239 ft | 326 kts | 124° |
| 2026-04-30 21:48 | 32.05734 | -81.47071 | 9893 ft | 324 kts | 124° |
| 2026-04-30 21:48 | 32.04534 | -81.44822 | 9638 ft | 323 kts | 124° |
| 2026-04-30 21:48 | 32.03342 | -81.42585 | 9233 ft | 321 kts | 124° |
| 2026-04-30 21:49 | 32.02159 | -81.40362 | 8831 ft | 319 kts | 124° |
| 2026-04-30 21:49 | 32.00985 | -81.38150 | 8454 ft | 317 kts | 124° |
| 2026-04-30 21:49 | 31.99823 | -81.35960 | 8038 ft | 314 kts | 124° |
| 2026-04-30 21:49 | 31.98442 | -81.33955 | 7356 ft | 317 kts | 143° |
| 2026-04-30 21:50 | 31.96594 | -81.32542 | 6709 ft | 318 kts | 158° |
| 2026-04-30 21:50 | 31.94508 | -81.31665 | 6057 ft | 320 kts | 164° |
| 2026-04-30 21:50 | 31.92416 | -81.30748 | 5566 ft | 319 kts | 162° |
| 2026-04-30 21:50 | 31.90348 | -81.29826 | 5181 ft | 316 kts | 162° |
| 2026-04-30 21:51 | 31.88391 | -81.28677 | 4828 ft | 317 kts | 143° |
| 2026-04-30 21:51 | 31.87091 | -81.26642 | 4469 ft | 319 kts | 111° |
| 2026-04-30 21:51 | 31.86809 | -81.24044 | 4076 ft | 319 kts | 80° |
| 2026-04-30 21:51 | 31.87642 | -81.21706 | 3688 ft | 313 kts | 49° |
| 2026-04-30 21:52 | 31.89287 | -81.20151 | 3325 ft | 300 kts | 21° |
| 2026-04-30 21:52 | 31.91280 | -81.19695 | 2946 ft | 289 kts | 356° |
| 2026-04-30 21:52 | 31.93246 | -81.19807 | 2624 ft | 276 kts | 354° |
| 2026-04-30 21:52 | 31.95081 | -81.19878 | 2547 ft | 253 kts | 356° |
| 2026-04-30 21:53 | 31.96759 | -81.19888 | 2464 ft | 230 kts | 356° |
| 2026-04-30 21:53 | 31.98292 | -81.19895 | 2397 ft | 210 kts | 356° |
| 2026-04-30 21:53 | 31.99726 | -81.19906 | 2227 ft | 204 kts | 356° |
| 2026-04-30 21:53 | 32.01137 | -81.19918 | 1992 ft | 202 kts | 358° |
| 2026-04-30 21:54 | 32.02509 | -81.19929 | 1783 ft | 192 kts | 357° |
| 2026-04-30 21:54 | 32.03807 | -81.19938 | 1492 ft | 181 kts | 356° |
| 2026-04-30 21:54 | 32.05017 | -81.19947 | 1261 ft | 166 kts | 358° |
| 2026-04-30 21:54 | 32.06124 | -81.19955 | 1092 ft | 153 kts | 358° |
| 2026-04-30 21:55 | 32.07135 | -81.19963 | 912 ft | 138 kts | 358° |
| 2026-04-30 21:55 | 32.08055 | -81.19970 | 750 ft | 126 kts | 358° |
| 2026-04-30 21:55 | 32.08934 | -81.19977 | 608 ft | 125 kts | 358° |
| 2026-04-30 21:55 | 32.09819 | -81.19985 | 459 ft | 130 kts | 359° |
| 2026-04-30 21:56 | 32.10705 | -81.19992 | 283 ft | 127 kts | 358° |
| 2026-04-30 21:56 | 32.11565 | -81.19998 | 109 ft | 122 kts | 357° |
| 2026-04-30 21:56 | 32.12371 | -81.20008 | 44 ft | 99 kts | 359° |
| 2026-04-30 21:56 | 32.12887 | -81.20009 | 39 ft | 49 kts | 0° |
| 2026-04-30 21:57 | 32.13023 | -81.20071 | 47 ft | 16 kts | 279° |
| 2026-04-30 21:57 | 32.13028 | -81.20185 | 51 ft | 13 kts | 272° |
| 2026-04-30 21:57 | 32.13032 | -81.20298 | 52 ft | 14 kts | 272° |
| 2026-04-30 21:57 | 32.13059 | -81.20362 | 53 ft | 4 kts | 25° |
| 2026-04-30 21:58 | 32.13163 | -81.20331 | 53 ft | 26 kts | 359° |
| 2026-04-30 21:58 | 32.13353 | -81.20330 | 54 ft | 27 kts | 360° |
| 2026-04-30 21:58 | 32.13447 | -81.20434 | 54 ft | 21 kts | 271° |
| 2026-04-30 21:58 | 32.13498 | -81.20580 | 54 ft | 20 kts | 328° |
| 2026-04-30 21:59 | 32.13529 | -81.20599 | 54 ft | 0 kts | 333° |